• Join FlightAware (Why Join?)
  • Login
  • US Flag 
02:17PM EDT


 

Airport Tracker/Info


-or-


 

Live Flight TrackerFlight Track Log ✈ SWA407 ✈ 06-May-2013 ✈ KSAN - KLAS

Flight Track Log - Related Links

Times and Time Zones

All times are in EDT time to prevent confusion due to time zone crossing. See the SWA407 flight status page for this flight to view local times or setup timezone preferences in your user account.

Time Position Orientation Groundspeed Altitude Reporting Facility
EDT Latitude Longitude Course Direction KTS MPH feet Rate Location/Type
01:10AM 32.7975 -117.2986 307° West 232 267 6,800  Level Los Angeles Center
01:11AM 32.8581 -117.3856 310° West 278 320 12,500 4,980 Climbing Los Angeles Center
01:12AM 32.9200 -117.4686 312° West 323 372 17,000 3,720 Climbing Los Angeles Center
01:13AM 32.9800 -117.5547 310° West 337 388 20,900 3,600 Climbing Los Angeles Center
01:14AM 33.1324 -117.7491 320° Northwest  Level FlightAware Approximate
01:14AM 33.0772 -117.6469 322° Northwest 388 447 25,100  Level Los Angeles Center
01:15AM 33.1975 -117.6628 354° North 430 495 28,400 1,860 Climbing Los Angeles Center
01:16AM 33.3178 -117.6797 353° North 436 502 29,000 240 Climbing Los Angeles Center
01:17AM 33.4383 -117.6969 353° North 437 503 29,000  Level Los Angeles Center
01:18AM 33.5844 -117.7164 354° North 442 509 29,000  Level Los Angeles Center
01:19AM 33.7097 -117.6700 17° North 500 575 29,000  Level Los Angeles Center
01:20AM 33.8283 -117.5681 36° Northeast 528 608 29,000  Level Los Angeles Center
01:21AM 33.9478 -117.4653 36° Northeast 531 611 29,000  Level Los Angeles Center
01:22AM 34.0661 -117.3631 36° Northeast 528 608 29,000  Level Los Angeles Center
01:23AM 34.1858 -117.2603 35° Northeast 530 610 29,000  Level Los Angeles Center
01:24AM 34.3217 -117.1414 36° Northeast 530 610 29,000  Level Los Angeles Center
01:25AM 34.4411 -117.0375 36° Northeast 532 612 29,000  Level Los Angeles Center
01:26AM 34.5614 -116.9308 36° Northeast 537 618 29,000  Level Los Angeles Center
01:27AM 34.6828 -116.8231 36° Northeast 542 624 29,000  Level Los Angeles Center
01:28AM 34.8044 -116.7150 36° Northeast 547 629 29,000  Level Los Angeles Center
01:29AM 34.9261 -116.6072 36° Northeast 545 627 29,000  Level Los Angeles Center
01:30AM 35.0367 -116.4822 43° Northeast 552 635 29,000  Level Los Angeles Center
01:31AM 35.1431 -116.3492 46° Northeast 552 635 29,000 -1,560 Level Los Angeles Center
01:32AM 35.2481 -116.2200 45° Northeast 542 624 25,900 -3,420 Descending Los Angeles Center
01:33AM 35.3608 -116.0739 47° Northeast 497 572 22,100 -3,420 Descending Los Angeles Center
01:34AM 35.4517 -115.9603 46° Northeast 471 542 19,000 -2,880 Descending Los Angeles Center
01:35AM 35.5308 -115.8622 45° Northeast 446 513 16,300 -2,520 Descending Los Angeles Center
01:36AM 35.6094 -115.7617 46° Northeast 419 482 13,900 -1,680 Descending Los Angeles Center
01:37AM 35.6783 -115.6758 45° Northeast 362 417 13,000 -480 Descending Los Angeles Center
01:38AM 35.7456 -115.5900 46° Northeast 317 365 13,000  Level Los Angeles Center
01:39AM 35.8367 -115.5697 10° North 315 362 13,000  Level Los Angeles Center
01:40AM 35.9250 -115.5642 North 317 365 13,000 -300 Level Los Angeles Center
01:41AM 35.9906 -115.5050 36° Northeast 314 361 12,500 -960 Descending Los Angeles Center
01:42AM 36.0206 -115.4083 69° East 308 354 11,100 -960 Descending Los Angeles Center
01:43AM 36.0264 -115.3150 86° East 290 334 10,600 -840 Descending Los Angeles Center
01:44AM 36.0203 -115.2264 95° East 272 313 9,400 -1,320 Descending Los Angeles Center
01:45AM 36.0150 -115.1400 94° East 262 302 8,000 -900 Descending Los Angeles Center
01:47AM 36.0103 -115.0639 94° East 242 278 7,600 -780 Descending Los Angeles Center
01:48AM 36.0058 -115.0008 95° East 206 237 6,500 -1,140 Descending Los Angeles Center
01:49AM 36.0286 -114.9558 58° Northeast 211 243 5,300 -1,140 Descending Los Angeles Center
01:50AM 36.0711 -114.9947 324° Northwest 194 223 4,200 -1,080 Descending Los Angeles Center
01:51AM 36.0739 -115.0533 273° West 181 208 3,200 -840 Descending Los Angeles Center
01:52AM 36.0736 -115.0972 270° West 115 132 2,500 -540 Descending Los Angeles Center
01:53AM 36.0739 -115.1353 271° West 132 152 2,000 -480 Descending Los Angeles Center
01:55AM 36.0667 -115.1500 270° West  Level FlightAware Approximate